Wittman Regional Airport
KOSH : rendu visible

Aérodrome :











RETROUVEZ-NOUS SUR...

 
LOGIN :

S'inscrire | Disclaimer

   EN    FR    IT 

 









Légende :    VFR   VFR Marginal   IFR   IFR Intensif   IFR Très Intensif
Visi : 
Plafond : 
>= 8 km
>= 3000ft
5 à 8 km
1000 à 3000 ft
1500m à 5 km
500 à 1000 ft
800 à 1500m
200 à 500 ft
< 800m
< 200 ft
Symboles :   Orages  Brouillard  Fortes neiges  Fortes précipitations  Vent > 20 kt






- Altitude de l'aérodrome : 808 ft
- Code IATA : OSH


KOSH - Wittman Regional

DERNIER METAR :
  • 211635Z 21010KT 1 3/4SM R36/5000VP6000FT -RA BR OVC007 09/08 A2953 RMK AO2 P0005 T00940083

METARs EXPIRÉS :
  • 211617Z 21011KT 3SM -RA BR OVC007 09/08 A2955 RMK AO2 P0002 T00890078
  • 211606Z 21011G17KT 2SM R36/5000VP6000FT -RA BR OVC007 09/08 A2955 RMK AO2 P0002 T00890078
  • 211553Z 21011G18KT 3SM -RA BR OVC008 09/08 A2955 RMK AO2 SLP011 P0003 T00890078
  • 211519Z 21011G21KT 3SM RA BR OVC007 09/08 A2956 RMK AO2 CIG 006V010 P0003 T00890078
  • 211509Z 22009G18KT 2SM -RA BR OVC007 09/07 A2957 RMK AO2 CIG 006V010 P0002 T00890072
  • 211453Z 21012G20KT 3SM -RA BR OVC007 08/07 A2957 RMK AO2 RAB30 SLP018 P0003 60007 T00830072 58014
  • 211353Z 20016G26KT 6SM BR OVC008 08/07 A2958 RMK AO2 PK WND 19028/1256 RAB08E43 CIG 007V012 SLP022 P0001 T00830067

Prévision TAF périmée.



MET'MAP, la Météo Aéronautique d'un coup d'oeil ! - Copyright ORBIFLY Décembre 2007 - Disclaimer

ORBIFLY MET'MAP TEAM :

Programmation & Développement : Alexandra Zaïnal
Conception & Développement : Baudouin d'Aumeries
Co-Programmation & Développement : Marc-Olivier Méhu
Soutien technique & logistique : Manuel Goepfert

Contact : metmap@orbifly.com




SOURCES & CREDITS :

   NOAA       Earth
Advisory